Detalii statie COMAGRA BEREGSAU [00001994]

Toti senzorii

Date Temperatura solului [C]Precipitatii [mm]Voltaj baterie [mV]Leaf Wetness [Min]HC Air temperature [C]HC Relative humidity [%]Punctul de roua [C]
medieminmaxsumaultimatimpmedieminmaxmediemediemin
2018-10-13 16:00:00 16.2 16 16.4 0 7186 24.55 23.9 25.29 36.15 8.2 7.9
2018-10-13 17:00:00 16.6 16.4 16.7 0 7138 24.05 23.52 24.81 36.81 8.1 7.7
2018-10-13 18:00:00 16.6 16.5 16.8 0 6922 21.14 18.44 23.35 44.37 8.2 7.7
2018-10-13 19:00:00 16.5 16.3 16.7 0 6844 16.52 15.13 18.02 56.41 7.6 7.3
2018-10-13 20:00:00 16.1 15.9 16.3 0 6816 14.55 13.41 15.45 59.43 6.5 6
2018-10-13 21:00:00 15.7 15.6 16 0 6806 13.08 12.19 13.66 62.08 5.8 5.5
2018-10-13 22:00:00 15.3 15.2 15.5 0 6796 12.25 11.32 14.12 65.98 5.9 5.4
2018-10-13 23:00:00 14.9 14.8 15.1 0 6786 11.31 9.84 11.92 70.5 5.9 4.2
2018-10-14 00:00:00 14.6 14.5 14.9 0 6776 9.73 8.49 10.88 71.81 4.6 4
2018-10-14 01:00:00 14.3 14.1 14.5 0 6766 8.97 8.1 10.2 77.94 5.1 4.3
2018-10-14 02:00:00 13.9 13.8 14.2 0 6766 8.93 8.39 9.54 78.6 5.2 4.5
2018-10-14 03:00:00 13.6 13.5 13.8 0 6766 7.92 7.62 8.52 83.62 5.1 4.7
2018-10-14 04:00:00 13.3 13.2 13.5 0 6756 7.51 7.2 7.95 89.58 5.8 5.4
2018-10-14 05:00:00 13.1 13 13.3 0 6738 7.2 6.69 7.64 95.4 6.4 5.7
2018-10-14 06:00:00 12.8 12.6 13 0 6738 6.78 6.59 7.18 98.49 6.4 6.2
2018-10-14 07:00:00 12.5 12.4 12.7 0 6718 6.83 6.39 7.35 98.21 6.4 5.9
2018-10-14 08:00:00 12.3 12.1 12.5 0 6766 7.54 6.63 8.85 97.41 7 6.3
2018-10-14 09:00:00 12.2 12.1 12.4 0 6826 11 9.18 12.82 83.14 8.1 7.9
2018-10-14 10:00:00 12.1 11.9 12.2 0 6884 14.41 12.98 16.18 63.21 7.2 6.7
2018-10-14 11:00:00 12.2 12.1 12.3 0 6972 17.15 16.37 17.97 42.79 4.1 2.6
2018-10-14 12:00:00 12.3 12.1 12.4 0 7060 19.14 17.65 21.21 33.86 2.6 2
2018-10-14 13:00:00 12.6 12.3 13 0 7196 21.67 20.71 22.88 31.5 3.7 2.2
2018-10-14 14:00:00 13.7 13.1 14.3 0 7196 22.75 21.73 23.95 31.62 4.7 4.2
2018-10-14 15:00:00 14.8 14.4 15.3 0 7186 23.62 22.62 24.66 28.25 3.9 3
2018-10-14 16:00:00 15.6 15.4 15.9 0 7176 22.57 21.03 23.66 29.37 3.5 3.1
2018-10-14 17:00:00 15.9 15.8 16.1 0 7176 20.02 19.39 20.73 34.98 3.8 3.3
2018-10-14 18:00:00 15.8 15.7 15.9 0 6922 17.77 15.49 19.97 38.36 3.1 2.2
2018-10-14 19:00:00 15.5 15.3 15.8 0 6844 14.37 12.72 16.61 44.1 2 0.7
2018-10-14 20:00:00 15.1 14.9 15.4 0 6816 14.74 12.04 16.69 36.63 -0.1 -0.8
2018-10-14 21:00:00 14.6 14.4 15.1 0 6806 12.5 11.71 13.26 39.81 -0.9 -1.8
2018-10-14 22:00:00 14.3 14.2 14.5 0 6796 11.61 9.93 14.27 41.37 -1.2 -1.9
2018-10-14 23:00:00 13.9 13.8 14.1 0 6796 9.65 8.92 11.32 46.29 -1.3 -2.3
2018-10-15 00:00:00 13.6 13.3 13.8 0 6786 7.78 6.85 9.15 51.64 -1.6 -2.5
2018-10-15 01:00:00 13.2 12.9 13.5 0 6766 7.17 6.42 7.91 59.04 -0.3 -1.2
2018-10-15 02:00:00 12.9 12.7 13.2 0 6776 7.95 7.29 8.45 63.61 1.3 0.4
2018-10-15 03:00:00 12.6 12.4 12.8 0 6756 6.63 6.23 7.1 65.43 0.5 0.3
2018-10-15 04:00:00 12.3 12.3 12.5 0 6756 6.36 5.93 6.62 67.05 0.5 0
2018-10-15 05:00:00 12.1 11.9 12.3 0 6738 5.55 5.19 5.79 70.5 0.5 0.1
2018-10-15 06:00:00 11.8 11.7 12 0 6728 5.05 4.58 5.67 72.58 0.4 0
2018-10-15 07:00:00 11.5 11.4 11.7 0 6718 5.11 4.65 5.47 74.32 0.8 0.4
2018-10-15 08:00:00 11.3 11.2 11.4 0 6756 4.94 4.68 5.18 77.4 1.2 0.7
2018-10-15 09:00:00 11.1 11 11.2 0 6806 7.45 5.22 10.04 73.5 2.8 2.2
2018-10-15 10:00:00 11 11 11.1 0 6844 13.13 10.72 15.22 53.18 3.5 3
2018-10-15 11:00:00 11 11 11.2 0 6904 16.66 15.04 17.95 40.84 3 2.1
2018-10-15 12:00:00 11.2 11.1 11.3 0 7010 18.77 17.83 20.53 33.88 2.2 1.9
2018-10-15 13:00:00 11.5 11.3 12 0 7196 22.03 21.03 22.86 28.19 2.5 2.2
2018-10-15 14:00:00 12.8 12.3 13.5 0 7196 23.19 21.97 23.97 26.91 2.7 2.1
2018-10-15 15:00:00 14 13.6 14.5 0 7186 23.97 22.82 24.86 25.23 2.5 2.2